sensor_id;sensor_type;location;lat;lon;timestamp;P1;durP1;ratioP1;P2;durP2;ratioP2
11098;SDS011;12223;42.650;23.364;2023-03-14T00:02:01;15.80;;;14.17;;
11098;SDS011;12223;42.650;23.364;2023-03-14T00:04:28;23.93;;;14.67;;
11098;SDS011;12223;42.650;23.364;2023-03-14T00:06:56;15.93;;;14.23;;
11098;SDS011;12223;42.650;23.364;2023-03-14T00:09:23;17.53;;;14.73;;
11098;SDS011;12223;42.650;23.364;2023-03-14T00:11:52;17.47;;;15.33;;
11098;SDS011;12223;42.650;23.364;2023-03-14T00:14:18;17.50;;;15.33;;
11098;SDS011;12223;42.650;23.364;2023-03-14T00:16:45;16.73;;;15.03;;
11098;SDS011;12223;42.650;23.364;2023-03-14T00:19:12;16.67;;;14.70;;
11098;SDS011;12223;42.650;23.364;2023-03-14T00:21:39;15.30;;;13.70;;
11098;SDS011;12223;42.650;23.364;2023-03-14T00:24:08;19.57;;;15.87;;
11098;SDS011;12223;42.650;23.364;2023-03-14T00:26:37;20.47;;;16.30;;
11098;SDS011;12223;42.650;23.364;2023-03-14T00:29:04;22.73;;;17.77;;
11098;SDS011;12223;42.650;23.364;2023-03-14T00:31:30;29.90;;;18.63;;
11098;SDS011;12223;42.650;23.364;2023-03-14T00:33:57;24.00;;;16.07;;
11098;SDS011;12223;42.650;23.364;2023-03-14T00:36:24;19.93;;;14.57;;
11098;SDS011;12223;42.650;23.364;2023-03-14T00:38:51;19.47;;;14.93;;
11098;SDS011;12223;42.650;23.364;2023-03-14T00:41:20;14.50;;;12.70;;
11098;SDS011;12223;42.650;23.364;2023-03-14T00:43:48;15.80;;;12.33;;
11098;SDS011;12223;42.650;23.364;2023-03-14T00:46:16;17.43;;;13.00;;
11098;SDS011;12223;42.650;23.364;2023-03-14T00:48:44;17.63;;;13.37;;
11098;SDS011;12223;42.650;23.364;2023-03-14T00:51:11;12.47;;;11.17;;
11098;SDS011;12223;42.650;23.364;2023-03-14T00:53:39;15.60;;;12.60;;
11098;SDS011;12223;42.650;23.364;2023-03-14T00:56:08;14.50;;;12.57;;
11098;SDS011;12223;42.650;23.364;2023-03-14T00:58:39;17.37;;;14.77;;
11098;SDS011;12223;42.650;23.364;2023-03-14T01:01:06;19.00;;;15.20;;
11098;SDS011;12223;42.650;23.364;2023-03-14T01:03:34;26.73;;;18.47;;
11098;SDS011;12223;42.650;23.364;2023-03-14T01:06:09;24.43;;;17.63;;
11098;SDS011;12223;42.650;23.364;2023-03-14T01:08:37;22.03;;;17.97;;
11098;SDS011;12223;42.650;23.364;2023-03-14T01:11:05;18.27;;;15.80;;
11098;SDS011;12223;42.650;23.364;2023-03-14T01:13:33;24.20;;;21.97;;
11098;SDS011;12223;42.650;23.364;2023-03-14T01:16:04;18.33;;;16.03;;
11098;SDS011;12223;42.650;23.364;2023-03-14T01:24:05;21.50;;;19.37;;
11098;SDS011;12223;42.650;23.364;2023-03-14T01:26:33;32.27;;;29.73;;
11098;SDS011;12223;42.650;23.364;2023-03-14T01:29:01;27.67;;;25.20;;
11098;SDS011;12223;42.650;23.364;2023-03-14T01:31:30;16.37;;;14.67;;
11098;SDS011;12223;42.650;23.364;2023-03-14T01:33:58;18.50;;;15.60;;
11098;SDS011;12223;42.650;23.364;2023-03-14T01:36:25;40.03;;;37.27;;
11098;SDS011;12223;42.650;23.364;2023-03-14T01:38:52;42.57;;;39.77;;
11098;SDS011;12223;42.650;23.364;2023-03-14T01:41:19;32.47;;;29.87;;
11098;SDS011;12223;42.650;23.364;2023-03-14T01:43:48;32.70;;;30.40;;
11098;SDS011;12223;42.650;23.364;2023-03-14T01:46:18;23.13;;;21.13;;
11098;SDS011;12223;42.650;23.364;2023-03-14T01:48:54;40.70;;;38.07;;
11098;SDS011;12223;42.650;23.364;2023-03-14T01:51:28;28.33;;;26.17;;
11098;SDS011;12223;42.650;23.364;2023-03-14T01:54:00;27.87;;;25.47;;
11098;SDS011;12223;42.650;23.364;2023-03-14T01:56:31;47.40;;;44.30;;
11098;SDS011;12223;42.650;23.364;2023-03-14T01:58:58;43.33;;;40.07;;
11098;SDS011;12223;42.650;23.364;2023-03-14T02:01:27;36.73;;;33.83;;
11098;SDS011;12223;42.650;23.364;2023-03-14T02:03:58;33.60;;;31.17;;
11098;SDS011;12223;42.650;23.364;2023-03-14T02:06:29;26.70;;;22.53;;
11098;SDS011;12223;42.650;23.364;2023-03-14T02:09:02;29.23;;;26.60;;
11098;SDS011;12223;42.650;23.364;2023-03-14T02:11:29;23.00;;;20.73;;
11098;SDS011;12223;42.650;23.364;2023-03-14T02:13:57;19.90;;;17.37;;
11098;SDS011;12223;42.650;23.364;2023-03-14T02:16:25;23.07;;;17.23;;
11098;SDS011;12223;42.650;23.364;2023-03-14T02:18:52;28.73;;;23.10;;
11098;SDS011;12223;42.650;23.364;2023-03-14T02:24:12;23.70;;;19.73;;
11098;SDS011;12223;42.650;23.364;2023-03-14T02:29:40;19.20;;;16.93;;
11098;SDS011;12223;42.650;23.364;2023-03-14T02:32:14;19.27;;;17.37;;
11098;SDS011;12223;42.650;23.364;2023-03-14T02:34:42;21.37;;;18.17;;
11098;SDS011;12223;42.650;23.364;2023-03-14T02:37:14;20.47;;;15.87;;
11098;SDS011;12223;42.650;23.364;2023-03-14T02:39:44;27.60;;;25.13;;
11098;SDS011;12223;42.650;23.364;2023-03-14T02:42:14;50.67;;;47.23;;
11098;SDS011;12223;42.650;23.364;2023-03-14T02:44:58;30.77;;;28.47;;
11098;SDS011;12223;42.650;23.364;2023-03-14T02:47:46;32.30;;;29.60;;
11098;SDS011;12223;42.650;23.364;2023-03-14T02:50:33;30.13;;;27.53;;
11098;SDS011;12223;42.650;23.364;2023-03-14T02:53:09;23.77;;;21.27;;
11098;SDS011;12223;42.650;23.364;2023-03-14T02:55:39;21.27;;;19.03;;
11098;SDS011;12223;42.650;23.364;2023-03-14T02:58:06;24.27;;;18.57;;
11098;SDS011;12223;42.650;23.364;2023-03-14T03:00:34;38.83;;;35.67;;
11098;SDS011;12223;42.650;23.364;2023-03-14T03:03:01;35.77;;;32.40;;
11098;SDS011;12223;42.650;23.364;2023-03-14T03:05:28;24.83;;;19.17;;
11098;SDS011;12223;42.650;23.364;2023-03-14T03:07:54;27.97;;;25.27;;
11098;SDS011;12223;42.650;23.364;2023-03-14T03:10:22;40.80;;;37.70;;
11098;SDS011;12223;42.650;23.364;2023-03-14T03:12:48;30.10;;;27.50;;
11098;SDS011;12223;42.650;23.364;2023-03-14T03:15:16;43.23;;;39.80;;
11098;SDS011;12223;42.650;23.364;2023-03-14T03:17:44;27.17;;;24.30;;
11098;SDS011;12223;42.650;23.364;2023-03-14T03:20:12;98.23;;;92.70;;
11098;SDS011;12223;42.650;23.364;2023-03-14T03:22:39;59.23;;;55.27;;
11098;SDS011;12223;42.650;23.364;2023-03-14T03:25:06;46.17;;;42.33;;
11098;SDS011;12223;42.650;23.364;2023-03-14T03:27:34;28.07;;;25.47;;
11098;SDS011;12223;42.650;23.364;2023-03-14T03:30:11;30.30;;;20.90;;
11098;SDS011;12223;42.650;23.364;2023-03-14T03:32:50;23.40;;;20.97;;
11098;SDS011;12223;42.650;23.364;2023-03-14T03:35:17;19.77;;;16.43;;
11098;SDS011;12223;42.650;23.364;2023-03-14T03:37:44;19.77;;;17.77;;
11098;SDS011;12223;42.650;23.364;2023-03-14T03:40:11;20.40;;;16.40;;
11098;SDS011;12223;42.650;23.364;2023-03-14T03:42:38;26.27;;;23.93;;
11098;SDS011;12223;42.650;23.364;2023-03-14T03:45:05;22.53;;;19.93;;
11098;SDS011;12223;42.650;23.364;2023-03-14T03:47:32;21.13;;;18.87;;
11098;SDS011;12223;42.650;23.364;2023-03-14T03:50:01;23.13;;;17.67;;
11098;SDS011;12223;42.650;23.364;2023-03-14T03:52:37;33.93;;;31.37;;
11098;SDS011;12223;42.650;23.364;2023-03-14T03:55:04;20.50;;;17.57;;
11098;SDS011;12223;42.650;23.364;2023-03-14T03:57:32;26.93;;;24.37;;
11098;SDS011;12223;42.650;23.364;2023-03-14T04:02:50;24.30;;;21.70;;
11098;SDS011;12223;42.650;23.364;2023-03-14T04:05:19;22.37;;;18.00;;
11098;SDS011;12223;42.650;23.364;2023-03-14T04:07:46;28.40;;;25.63;;
11098;SDS011;12223;42.650;23.364;2023-03-14T04:10:13;33.90;;;30.27;;
11098;SDS011;12223;42.650;23.364;2023-03-14T04:12:40;30.10;;;26.53;;
11098;SDS011;12223;42.650;23.364;2023-03-14T04:15:07;32.50;;;27.30;;
11098;SDS011;12223;42.650;23.364;2023-03-14T04:17:34;67.57;;;63.07;;
11098;SDS011;12223;42.650;23.364;2023-03-14T04:20:02;153.73;;;145.97;;
11098;SDS011;12223;42.650;23.364;2023-03-14T04:22:31;69.40;;;65.20;;
11098;SDS011;12223;42.650;23.364;2023-03-14T04:24:59;78.07;;;73.40;;
11098;SDS011;12223;42.650;23.364;2023-03-14T04:27:27;58.03;;;53.53;;
11098;SDS011;12223;42.650;23.364;2023-03-14T04:29:54;54.10;;;50.67;;
11098;SDS011;12223;42.650;23.364;2023-03-14T04:32:21;36.50;;;33.60;;
11098;SDS011;12223;42.650;23.364;2023-03-14T04:34:47;34.93;;;31.43;;
11098;SDS011;12223;42.650;23.364;2023-03-14T04:37:14;33.13;;;30.33;;
11098;SDS011;12223;42.650;23.364;2023-03-14T04:39:43;72.87;;;68.17;;
11098;SDS011;12223;42.650;23.364;2023-03-14T04:42:09;49.33;;;45.90;;
11098;SDS011;12223;42.650;23.364;2023-03-14T04:44:36;31.20;;;28.20;;
11098;SDS011;12223;42.650;23.364;2023-03-14T04:47:05;39.57;;;36.00;;
11098;SDS011;12223;42.650;23.364;2023-03-14T04:49:33;59.73;;;55.87;;
11098;SDS011;12223;42.650;23.364;2023-03-14T04:52:02;20.43;;;18.03;;
11098;SDS011;12223;42.650;23.364;2023-03-14T04:54:35;21.73;;;16.83;;
11098;SDS011;12223;42.650;23.364;2023-03-14T04:57:06;20.40;;;16.70;;
11098;SDS011;12223;42.650;23.364;2023-03-14T04:59:35;20.47;;;18.37;;
11098;SDS011;12223;42.650;23.364;2023-03-14T05:02:03;23.83;;;21.43;;
11098;SDS011;12223;42.650;23.364;2023-03-14T05:04:29;31.70;;;29.00;;
11098;SDS011;12223;42.650;23.364;2023-03-14T05:06:58;40.30;;;37.10;;
11098;SDS011;12223;42.650;23.364;2023-03-14T05:09:24;25.67;;;22.97;;
11098;SDS011;12223;42.650;23.364;2023-03-14T05:11:54;28.27;;;24.67;;
11098;SDS011;12223;42.650;23.364;2023-03-14T05:14:22;33.43;;;30.03;;
11098;SDS011;12223;42.650;23.364;2023-03-14T05:16:49;20.73;;;18.67;;
11098;SDS011;12223;42.650;23.364;2023-03-14T05:19:16;20.43;;;13.90;;
11098;SDS011;12223;42.650;23.364;2023-03-14T05:21:43;18.77;;;15.47;;
11098;SDS011;12223;42.650;23.364;2023-03-14T05:24:10;17.00;;;15.07;;
11098;SDS011;12223;42.650;23.364;2023-03-14T05:26:36;17.57;;;14.47;;
11098;SDS011;12223;42.650;23.364;2023-03-14T05:29:03;15.40;;;13.57;;
11098;SDS011;12223;42.650;23.364;2023-03-14T05:31:34;13.50;;;12.03;;
11098;SDS011;12223;42.650;23.364;2023-03-14T05:34:01;17.13;;;14.80;;
11098;SDS011;12223;42.650;23.364;2023-03-14T05:36:27;18.63;;;14.43;;
11098;SDS011;12223;42.650;23.364;2023-03-14T05:38:54;15.52;;;11.27;;
11098;SDS011;12223;42.650;23.364;2023-03-14T05:41:21;17.60;;;12.18;;
11098;SDS011;12223;42.650;23.364;2023-03-14T05:43:48;14.80;;;13.60;;
11098;SDS011;12223;42.650;23.364;2023-03-14T05:46:15;21.55;;;14.20;;
11098;SDS011;12223;42.650;23.364;2023-03-14T05:48:46;18.90;;;13.63;;
11098;SDS011;12223;42.650;23.364;2023-03-14T05:51:13;30.23;;;20.17;;
11098;SDS011;12223;42.650;23.364;2023-03-14T05:53:40;20.98;;;15.73;;
11098;SDS011;12223;42.650;23.364;2023-03-14T05:56:09;18.65;;;16.25;;
11098;SDS011;12223;42.650;23.364;2023-03-14T05:58:35;16.48;;;14.75;;
11098;SDS011;12223;42.650;23.364;2023-03-14T06:01:03;16.92;;;15.10;;
11098;SDS011;12223;42.650;23.364;2023-03-14T06:03:31;23.65;;;17.20;;
11098;SDS011;12223;42.650;23.364;2023-03-14T06:06:00;17.30;;;15.50;;
11098;SDS011;12223;42.650;23.364;2023-03-14T06:08:27;15.48;;;13.88;;
11098;SDS011;12223;42.650;23.364;2023-03-14T06:10:54;18.40;;;15.35;;
11098;SDS011;12223;42.650;23.364;2023-03-14T06:13:21;13.40;;;12.13;;
11098;SDS011;12223;42.650;23.364;2023-03-14T06:15:47;12.88;;;11.68;;
11098;SDS011;12223;42.650;23.364;2023-03-14T06:18:14;13.68;;;11.15;;
11098;SDS011;12223;42.650;23.364;2023-03-14T06:20:44;16.23;;;11.88;;
11098;SDS011;12223;42.650;23.364;2023-03-14T06:23:12;12.90;;;11.60;;
11098;SDS011;12223;42.650;23.364;2023-03-14T06:25:39;17.70;;;12.57;;
11098;SDS011;12223;42.650;23.364;2023-03-14T06:28:05;20.20;;;14.98;;
11098;SDS011;12223;42.650;23.364;2023-03-14T06:30:32;18.45;;;14.52;;
11098;SDS011;12223;42.650;23.364;2023-03-14T06:32:59;20.98;;;14.95;;
11098;SDS011;12223;42.650;23.364;2023-03-14T06:35:26;21.60;;;14.07;;
11098;SDS011;12223;42.650;23.364;2023-03-14T06:37:53;14.40;;;12.68;;
11098;SDS011;12223;42.650;23.364;2023-03-14T06:40:21;19.27;;;13.40;;
11098;SDS011;12223;42.650;23.364;2023-03-14T06:42:48;24.10;;;12.52;;
11098;SDS011;12223;42.650;23.364;2023-03-14T06:45:15;12.13;;;11.00;;
11098;SDS011;12223;42.650;23.364;2023-03-14T06:47:42;17.15;;;12.18;;
11098;SDS011;12223;42.650;23.364;2023-03-14T06:50:09;14.98;;;11.77;;
11098;SDS011;12223;42.650;23.364;2023-03-14T06:52:36;13.60;;;12.35;;
11098;SDS011;12223;42.650;23.364;2023-03-14T06:55:06;15.43;;;13.00;;
11098;SDS011;12223;42.650;23.364;2023-03-14T06:57:35;12.88;;;11.60;;
11098;SDS011;12223;42.650;23.364;2023-03-14T07:00:02;15.57;;;12.70;;
11098;SDS011;12223;42.650;23.364;2023-03-14T07:02:29;15.57;;;13.32;;
11098;SDS011;12223;42.650;23.364;2023-03-14T07:04:56;18.10;;;14.50;;
11098;SDS011;12223;42.650;23.364;2023-03-14T07:07:24;14.23;;;12.05;;
11098;SDS011;12223;42.650;23.364;2023-03-14T07:09:50;13.13;;;11.82;;
11098;SDS011;12223;42.650;23.364;2023-03-14T07:12:17;12.07;;;10.97;;
11098;SDS011;12223;42.650;23.364;2023-03-14T07:14:45;17.93;;;16.47;;
11098;SDS011;12223;42.650;23.364;2023-03-14T07:17:12;16.17;;;14.97;;
11098;SDS011;12223;42.650;23.364;2023-03-14T07:19:39;13.47;;;12.20;;
11098;SDS011;12223;42.650;23.364;2023-03-14T07:22:06;13.03;;;11.77;;
11098;SDS011;12223;42.650;23.364;2023-03-14T07:24:32;14.80;;;13.30;;
11098;SDS011;12223;42.650;23.364;2023-03-14T07:26:59;19.63;;;12.43;;
11098;SDS011;12223;42.650;23.364;2023-03-14T07:29:26;26.77;;;24.77;;
11098;SDS011;12223;42.650;23.364;2023-03-14T07:31:54;14.63;;;13.30;;
11098;SDS011;12223;42.650;23.364;2023-03-14T07:34:21;24.47;;;22.57;;
11098;SDS011;12223;42.650;23.364;2023-03-14T07:36:48;13.93;;;12.83;;
11098;SDS011;12223;42.650;23.364;2023-03-14T07:39:14;21.40;;;13.40;;
11098;SDS011;12223;42.650;23.364;2023-03-14T07:41:41;13.93;;;12.53;;
11098;SDS011;12223;42.650;23.364;2023-03-14T07:44:08;15.03;;;13.53;;
11098;SDS011;12223;42.650;23.364;2023-03-14T07:46:35;19.53;;;17.43;;
11098;SDS011;12223;42.650;23.364;2023-03-14T07:49:03;17.57;;;15.73;;
11098;SDS011;12223;42.650;23.364;2023-03-14T07:51:30;17.73;;;16.13;;
11098;SDS011;12223;42.650;23.364;2023-03-14T07:53:57;15.10;;;13.63;;
11098;SDS011;12223;42.650;23.364;2023-03-14T07:56:25;17.23;;;13.83;;
11098;SDS011;12223;42.650;23.364;2023-03-14T07:58:52;15.63;;;14.13;;
11098;SDS011;12223;42.650;23.364;2023-03-14T08:01:19;21.77;;;19.67;;
11098;SDS011;12223;42.650;23.364;2023-03-14T08:03:46;23.20;;;20.77;;
11098;SDS011;12223;42.650;23.364;2023-03-14T08:06:14;20.27;;;17.80;;
11098;SDS011;12223;42.650;23.364;2023-03-14T08:08:42;19.70;;;17.70;;
11098;SDS011;12223;42.650;23.364;2023-03-14T08:11:09;47.83;;;44.97;;
11098;SDS011;12223;42.650;23.364;2023-03-14T08:13:37;34.87;;;32.47;;
11098;SDS011;12223;42.650;23.364;2023-03-14T08:16:05;29.53;;;27.40;;
11098;SDS011;12223;42.650;23.364;2023-03-14T08:18:32;35.10;;;32.83;;
11098;SDS011;12223;42.650;23.364;2023-03-14T08:20:59;29.10;;;26.83;;
11098;SDS011;12223;42.650;23.364;2023-03-14T08:23:27;32.53;;;30.23;;
11098;SDS011;12223;42.650;23.364;2023-03-14T08:25:54;46.10;;;43.23;;
11098;SDS011;12223;42.650;23.364;2023-03-14T08:28:20;23.47;;;21.63;;
11098;SDS011;12223;42.650;23.364;2023-03-14T08:30:47;21.30;;;19.40;;
11098;SDS011;12223;42.650;23.364;2023-03-14T08:33:14;18.53;;;16.73;;
11098;SDS011;12223;42.650;23.364;2023-03-14T08:35:41;22.40;;;20.40;;
11098;SDS011;12223;42.650;23.364;2023-03-14T08:38:08;24.57;;;22.20;;
11098;SDS011;12223;42.650;23.364;2023-03-14T08:40:36;27.10;;;24.63;;
11098;SDS011;12223;42.650;23.364;2023-03-14T08:43:03;23.40;;;21.70;;
11098;SDS011;12223;42.650;23.364;2023-03-14T08:45:30;20.57;;;18.27;;
11098;SDS011;12223;42.650;23.364;2023-03-14T08:47:57;24.20;;;19.80;;
11098;SDS011;12223;42.650;23.364;2023-03-14T08:50:25;20.20;;;18.07;;
11098;SDS011;12223;42.650;23.364;2023-03-14T08:52:52;17.73;;;16.13;;
11098;SDS011;12223;42.650;23.364;2023-03-14T08:55:19;15.23;;;12.47;;
11098;SDS011;12223;42.650;23.364;2023-03-14T08:57:47;14.40;;;12.30;;
11098;SDS011;12223;42.650;23.364;2023-03-14T09:00:14;19.57;;;11.80;;
11098;SDS011;12223;42.650;23.364;2023-03-14T09:02:42;15.40;;;12.03;;
11098;SDS011;12223;42.650;23.364;2023-03-14T09:05:09;17.20;;;12.27;;
11098;SDS011;12223;42.650;23.364;2023-03-14T09:07:36;20.23;;;12.43;;
11098;SDS011;12223;42.650;23.364;2023-03-14T09:10:03;14.07;;;12.57;;
11098;SDS011;12223;42.650;23.364;2023-03-14T09:12:31;19.80;;;12.57;;
11098;SDS011;12223;42.650;23.364;2023-03-14T09:14:59;15.03;;;13.43;;
11098;SDS011;12223;42.650;23.364;2023-03-14T09:17:26;14.47;;;13.03;;
11098;SDS011;12223;42.650;23.364;2023-03-14T09:19:53;16.73;;;13.00;;
11098;SDS011;12223;42.650;23.364;2023-03-14T09:22:20;14.23;;;12.83;;
11098;SDS011;12223;42.650;23.364;2023-03-14T09:24:47;14.13;;;11.53;;
11098;SDS011;12223;42.650;23.364;2023-03-14T09:27:14;13.87;;;12.47;;
11098;SDS011;12223;42.650;23.364;2023-03-14T09:29:40;16.07;;;12.60;;
11098;SDS011;12223;42.650;23.364;2023-03-14T09:32:08;13.30;;;12.00;;
11098;SDS011;12223;42.650;23.364;2023-03-14T09:34:35;19.43;;;13.30;;
11098;SDS011;12223;42.650;23.364;2023-03-14T09:37:02;13.97;;;11.30;;
11098;SDS011;12223;42.650;23.364;2023-03-14T09:39:29;20.70;;;11.93;;
11098;SDS011;12223;42.650;23.364;2023-03-14T09:41:56;12.97;;;11.57;;
11098;SDS011;12223;42.650;23.364;2023-03-14T09:44:25;13.77;;;12.67;;
11098;SDS011;12223;42.650;23.364;2023-03-14T09:46:56;15.47;;;13.77;;
11098;SDS011;12223;42.650;23.364;2023-03-14T09:49:28;13.70;;;12.27;;
11098;SDS011;12223;42.650;23.364;2023-03-14T09:51:58;14.40;;;12.97;;
11098;SDS011;12223;42.650;23.364;2023-03-14T09:54:30;13.97;;;12.67;;
11098;SDS011;12223;42.650;23.364;2023-03-14T09:56:59;15.67;;;14.03;;
11098;SDS011;12223;42.650;23.364;2023-03-14T09:59:26;15.30;;;13.80;;
11098;SDS011;12223;42.650;23.364;2023-03-14T10:01:55;15.80;;;14.10;;
11098;SDS011;12223;42.650;23.364;2023-03-14T10:04:24;14.50;;;13.27;;
11098;SDS011;12223;42.650;23.364;2023-03-14T10:06:54;12.37;;;11.07;;
11098;SDS011;12223;42.650;23.364;2023-03-14T10:09:21;13.67;;;12.30;;
11098;SDS011;12223;42.650;23.364;2023-03-14T10:11:51;13.87;;;10.73;;
11098;SDS011;12223;42.650;23.364;2023-03-14T10:14:28;10.10;;;9.20;;
11098;SDS011;12223;42.650;23.364;2023-03-14T10:16:59;14.40;;;9.43;;
11098;SDS011;12223;42.650;23.364;2023-03-14T10:19:32;10.40;;;9.30;;
11098;SDS011;12223;42.650;23.364;2023-03-14T10:22:02;10.20;;;9.30;;
11098;SDS011;12223;42.650;23.364;2023-03-14T10:24:31;9.97;;;9.10;;
11098;SDS011;12223;42.650;23.364;2023-03-14T10:26:59;10.60;;;9.60;;
11098;SDS011;12223;42.650;23.364;2023-03-14T10:29:28;13.87;;;12.60;;
11098;SDS011;12223;42.650;23.364;2023-03-14T10:31:57;12.77;;;11.53;;
11098;SDS011;12223;42.650;23.364;2023-03-14T10:34:27;14.70;;;12.43;;
11098;SDS011;12223;42.650;23.364;2023-03-14T10:36:55;11.43;;;10.53;;
11098;SDS011;12223;42.650;23.364;2023-03-14T10:39:27;10.40;;;9.63;;
11098;SDS011;12223;42.650;23.364;2023-03-14T10:42:01;17.17;;;9.43;;
11098;SDS011;12223;42.650;23.364;2023-03-14T10:44:31;13.67;;;9.70;;
11098;SDS011;12223;42.650;23.364;2023-03-14T10:47:00;8.97;;;8.27;;
11098;SDS011;12223;42.650;23.364;2023-03-14T10:49:29;12.83;;;11.73;;
11098;SDS011;12223;42.650;23.364;2023-03-14T10:52:00;12.40;;;11.20;;
11098;SDS011;12223;42.650;23.364;2023-03-14T10:54:30;15.70;;;9.90;;
11098;SDS011;12223;42.650;23.364;2023-03-14T10:56:57;9.00;;;8.20;;
11098;SDS011;12223;42.650;23.364;2023-03-14T10:59:25;12.87;;;8.77;;
11098;SDS011;12223;42.650;23.364;2023-03-14T11:01:57;9.00;;;8.10;;
11098;SDS011;12223;42.650;23.364;2023-03-14T11:04:39;9.40;;;8.50;;
11098;SDS011;12223;42.650;23.364;2023-03-14T11:07:14;10.53;;;9.77;;
11098;SDS011;12223;42.650;23.364;2023-03-14T11:09:48;12.90;;;12.03;;
11098;SDS011;12223;42.650;23.364;2023-03-14T11:12:28;11.53;;;10.53;;
11098;SDS011;12223;42.650;23.364;2023-03-14T11:15:05;11.87;;;11.07;;
11098;SDS011;12223;42.650;23.364;2023-03-14T11:17:41;15.97;;;9.13;;
11098;SDS011;12223;42.650;23.364;2023-03-14T11:20:22;12.77;;;8.00;;
11098;SDS011;12223;42.650;23.364;2023-03-14T11:22:59;7.50;;;6.80;;
11098;SDS011;12223;42.650;23.364;2023-03-14T11:25:35;8.80;;;6.63;;
11098;SDS011;12223;42.650;23.364;2023-03-14T11:28:10;6.87;;;6.27;;
11098;SDS011;12223;42.650;23.364;2023-03-14T11:30:45;6.70;;;6.10;;
11098;SDS011;12223;42.650;23.364;2023-03-14T11:33:19;7.03;;;6.43;;
11098;SDS011;12223;42.650;23.364;2023-03-14T11:35:52;7.03;;;6.33;;
11098;SDS011;12223;42.650;23.364;2023-03-14T11:38:28;7.13;;;6.50;;
11098;SDS011;12223;42.650;23.364;2023-03-14T11:41:03;9.10;;;7.20;;
11098;SDS011;12223;42.650;23.364;2023-03-14T11:43:35;8.30;;;7.57;;
11098;SDS011;12223;42.650;23.364;2023-03-14T11:46:08;11.13;;;8.00;;
11098;SDS011;12223;42.650;23.364;2023-03-14T11:48:42;9.30;;;7.70;;
11098;SDS011;12223;42.650;23.364;2023-03-14T11:51:13;8.37;;;7.60;;
11098;SDS011;12223;42.650;23.364;2023-03-14T11:53:54;9.43;;;8.60;;
11098;SDS011;12223;42.650;23.364;2023-03-14T11:56:29;9.87;;;9.17;;
11098;SDS011;12223;42.650;23.364;2023-03-14T11:59:01;10.43;;;9.73;;
11098;SDS011;12223;42.650;23.364;2023-03-14T12:01:34;10.93;;;10.20;;
11098;SDS011;12223;42.650;23.364;2023-03-14T12:04:11;10.43;;;9.83;;
11098;SDS011;12223;42.650;23.364;2023-03-14T12:06:47;13.37;;;7.07;;
11098;SDS011;12223;42.650;23.364;2023-03-14T12:09:15;10.40;;;7.17;;
11098;SDS011;12223;42.650;23.364;2023-03-14T12:11:46;9.13;;;7.40;;
11098;SDS011;12223;42.650;23.364;2023-03-14T12:14:21;11.10;;;10.43;;
11098;SDS011;12223;42.650;23.364;2023-03-14T12:16:52;12.03;;;10.97;;
11098;SDS011;12223;42.650;23.364;2023-03-14T12:19:32;10.67;;;10.07;;
11098;SDS011;12223;42.650;23.364;2023-03-14T12:22:05;9.68;;;9.07;;
11098;SDS011;12223;42.650;23.364;2023-03-14T12:24:41;10.30;;;8.25;;
11098;SDS011;12223;42.650;23.364;2023-03-14T12:27:37;7.43;;;6.93;;
11098;SDS011;12223;42.650;23.364;2023-03-14T12:30:33;7.90;;;7.30;;
11098;SDS011;12223;42.650;23.364;2023-03-14T12:35:57;8.00;;;6.70;;
11098;SDS011;12223;42.650;23.364;2023-03-14T12:38:29;6.47;;;5.97;;
11098;SDS011;12223;42.650;23.364;2023-03-14T12:41:06;6.47;;;6.07;;
11098;SDS011;12223;42.650;23.364;2023-03-14T12:43:44;8.10;;;6.67;;
11098;SDS011;12223;42.650;23.364;2023-03-14T12:48:56;6.35;;;5.95;;
11098;SDS011;12223;42.650;23.364;2023-03-14T12:51:34;6.93;;;6.43;;
11098;SDS011;12223;42.650;23.364;2023-03-14T12:54:09;6.00;;;5.60;;
11098;SDS011;12223;42.650;23.364;2023-03-14T12:57:09;7.40;;;5.85;;
11098;SDS011;12223;42.650;23.364;2023-03-14T12:59:49;7.50;;;6.83;;
11098;SDS011;12223;42.650;23.364;2023-03-14T13:02:19;6.83;;;6.33;;
11098;SDS011;12223;42.650;23.364;2023-03-14T13:04:50;7.30;;;6.85;;
11098;SDS011;12223;42.650;23.364;2023-03-14T13:07:30;6.90;;;6.50;;
11098;SDS011;12223;42.650;23.364;2023-03-14T13:10:16;7.65;;;7.15;;
11098;SDS011;12223;42.650;23.364;2023-03-14T13:12:51;7.57;;;6.90;;
11098;SDS011;12223;42.650;23.364;2023-03-14T13:15:31;9.48;;;7.95;;
11098;SDS011;12223;42.650;23.364;2023-03-14T13:18:03;10.73;;;6.88;;
11098;SDS011;12223;42.650;23.364;2023-03-14T13:20:36;7.53;;;6.80;;
11098;SDS011;12223;42.650;23.364;2023-03-14T13:23:19;7.65;;;6.65;;
11098;SDS011;12223;42.650;23.364;2023-03-14T13:25:50;9.63;;;7.45;;
11098;SDS011;12223;42.650;23.364;2023-03-14T13:28:19;8.25;;;7.57;;
11098;SDS011;12223;42.650;23.364;2023-03-14T13:30:48;6.80;;;6.38;;
11098;SDS011;12223;42.650;23.364;2023-03-14T13:33:19;7.25;;;6.85;;
11098;SDS011;12223;42.650;23.364;2023-03-14T13:35:50;7.78;;;7.32;;
11098;SDS011;12223;42.650;23.364;2023-03-14T13:38:22;7.07;;;6.57;;
11098;SDS011;12223;42.650;23.364;2023-03-14T13:40:51;7.70;;;7.00;;
11098;SDS011;12223;42.650;23.364;2023-03-14T13:43:25;8.23;;;7.80;;
11098;SDS011;12223;42.650;23.364;2023-03-14T13:46:02;7.78;;;7.22;;
11098;SDS011;12223;42.650;23.364;2023-03-14T13:48:32;6.78;;;6.47;;
11098;SDS011;12223;42.650;23.364;2023-03-14T13:51:01;7.47;;;7.07;;
11098;SDS011;12223;42.650;23.364;2023-03-14T13:53:30;8.63;;;7.05;;
11098;SDS011;12223;42.650;23.364;2023-03-14T13:56:08;7.50;;;7.00;;
11098;SDS011;12223;42.650;23.364;2023-03-14T13:58:37;7.75;;;7.25;;
11098;SDS011;12223;42.650;23.364;2023-03-14T14:01:11;7.80;;;7.20;;
11098;SDS011;12223;42.650;23.364;2023-03-14T14:03:42;9.32;;;5.90;;
11098;SDS011;12223;42.650;23.364;2023-03-14T14:06:16;7.50;;;6.65;;
11098;SDS011;12223;42.650;23.364;2023-03-14T14:08:49;8.07;;;7.40;;
11098;SDS011;12223;42.650;23.364;2023-03-14T14:11:20;16.15;;;12.05;;
11098;SDS011;12223;42.650;23.364;2023-03-14T14:13:53;7.47;;;6.85;;
11098;SDS011;12223;42.650;23.364;2023-03-14T14:16:25;6.57;;;6.05;;
11098;SDS011;12223;42.650;23.364;2023-03-14T14:18:56;8.40;;;6.88;;
11098;SDS011;12223;42.650;23.364;2023-03-14T14:21:25;7.43;;;6.70;;
11098;SDS011;12223;42.650;23.364;2023-03-14T14:23:52;7.13;;;6.47;;
11098;SDS011;12223;42.650;23.364;2023-03-14T14:26:19;5.70;;;5.40;;
11098;SDS011;12223;42.650;23.364;2023-03-14T14:28:46;6.70;;;5.93;;
11098;SDS011;12223;42.650;23.364;2023-03-14T14:31:18;6.30;;;5.80;;
11098;SDS011;12223;42.650;23.364;2023-03-14T14:33:54;5.60;;;5.27;;
11098;SDS011;12223;42.650;23.364;2023-03-14T14:36:23;5.77;;;5.40;;
11098;SDS011;12223;42.650;23.364;2023-03-14T14:38:54;5.80;;;5.50;;
11098;SDS011;12223;42.650;23.364;2023-03-14T14:41:28;6.33;;;5.77;;
11098;SDS011;12223;42.650;23.364;2023-03-14T14:43:57;5.60;;;5.30;;
11098;SDS011;12223;42.650;23.364;2023-03-14T14:46:26;5.57;;;5.17;;
11098;SDS011;12223;42.650;23.364;2023-03-14T14:48:57;6.80;;;6.20;;
11098;SDS011;12223;42.650;23.364;2023-03-14T14:51:33;5.47;;;5.27;;